LESTLESA

Guest
Details From LEST - Santiago
To LESA - Salamanca
Flight Number -
Tags generated
Created
Modified
Stats Distance 175 nm / 324 km
Max Altitude 13,800 ft / 4,206 m
Waypoints 3
Social Downloads 5
Likes 0
Share VATSIM

Download

Looking for another format? Having issues loading an existing format? Contact us
Advertisement - Login to hide

Notes

Basic altitude profile: - Ascent Rate: 2500ft/min - Ascent Speed: 250kts - Cruise Altitude: 35000ft - Cruise Speed: 420kts - Descent Rate: 1500ft/min - Descent Speed: 250kts

Route

LEST MOSEN LESA

ID Type Via Altitude Latitude Longitude Leg Dist Tot Dist Heading (true) Name
O LEST APT - 0 ft / 0 m 42.89780˚ -8.41569˚ - 0 nm - Santiago
MOSEN FIX - 13,800 ft / 4,206 m 41.78654˚ -6.56085˚ 105 nm 105 nm 128° / 130° -
O LESA APT - 0 ft / 0 m 40.95215˚ -5.50164˚ 69 nm 175 nm 136° / 137° Salamanca

Altitude Profile

Advertisement - Login to hide

Weather


0- 5 10 15 20 25 30 35+ Temperature / ° C

Clouds and Precipitation
Forecast for 2017-12-16 18:00 UTC. Updated 21 minutes ago

Ground ~20,000 ft ~40,000 ft Winds

LEST

Details ICAO LEST (SCQ)
Name Santiago
Region Spain
Timezone Europe/Madrid (UTC+1.0)
Stats Elevation 1,169 ft / 356 m (AMSL)
Location 42.897797° -8.415691°
Runways 1
Magnetic Variation 2.370° W

METAR

LEST 161330Z 03003KT 330V080 9999 BCFG FEW007 SCT038 09/05 Q1027 TEMPO NSW

Decode

TAF

TAF LEST 161100Z 1612/1712 02005KT 9999 SCT020 TX10/1614Z TN01/1706Z

Decode

Departure Runways

ID Width Length Bearing (true) Bearing (mag) Surface Threshold Offset Overrun Length
17 148 ft / 45 m 10,509 ft / 3,203 m 166.04° 168.41° Asphalt 394 ft / 120 m 0 ft / 0 m
35 148 ft / 45 m 10,509 ft / 3,203 m 346.05° 348.42° Asphalt 0 ft / 0 m 197 ft / 60 m

LESA

Details ICAO LESA (SLM)
Name Salamanca
Region Spain
Timezone Europe/Madrid (UTC+1.0)
Stats Elevation 2,595 ft / 791 m (AMSL)
Location 40.952150° -5.501645°
Runways 2
Magnetic Variation 1.292° W

METAR

LESA 161330Z 05003KT 330V110 9999 FEW024 06/M01 Q1024

Decode

TAF

TAF LESA 161100Z 1612/1712 03010KT CAVOK TX08/1615Z TNM05/1706Z

Decode

Destination Runways

ID Width Length Bearing (true) Bearing (mag) Surface Threshold Offset Overrun Length
03 197 ft / 60 m 8,252 ft / 2,515 m 27.81° 29.10° Asphalt 0 ft / 0 m 902 ft / 275 m
08 400 ft / 122 m 6,601 ft / 2,012 m 74.07° 75.36° Dirt 0 ft / 0 m 0 ft / 0 m
21 197 ft / 60 m 8,252 ft / 2,515 m 207.82° 209.11° Asphalt 0 ft / 0 m 902 ft / 275 m
26 400 ft / 122 m 6,601 ft / 2,012 m 254.09° 255.38° Dirt 0 ft / 0 m 0 ft / 0 m

Approach Navaids

Runway Type Ident Frequency Range Bearing (true) Bearing (mag) Slope Elevation
21 Localiser IALR 110.10 MHz 18 nm / 33 km 207.81° 209.10° - 2,595 ft / 791 m (AMSL)
21 Glidescope IALR 110.10 MHz 10 nm / 19 km 207.82° 209.11° 3.10° 2,595 ft / 791 m (AMSL)